Time;durP1;ratioP1;P1;durP2;ratioP2;P2;SDS_P1;SDS_P2;PMS_P1;PMS_P2;Temp;Humidity;BMP_temperature;BMP_pressure;BME280_temperature;BME280_humidity;BME280_pressure;Samples;Min_cycle;Max_cycle;Signal;HPM_P1;HPM_P2
2022/05/01 00:02:23;;;;;;;16.83;15.23;;;;;;;9.42;100.00;97021.84;5042876;28;20547;-58
2022/05/01 00:04:49;;;;;;;15.60;14.17;;;;;;;9.45;100.00;97017.16;5045175;28;20207;-57
2022/05/01 00:07:16;;;;;;;17.37;15.67;;;;;;;9.52;100.00;97019.28;5044768;28;20200;-60
2022/05/01 00:09:44;;;;;;;18.33;16.50;;;;;;;9.50;100.00;97011.47;5044120;28;20807;-58
2022/05/01 00:12:10;;;;;;;16.60;15.00;;;;;;;9.53;100.00;97011.22;5044836;28;20199;-57
2022/05/01 00:14:37;;;;;;;18.03;16.40;;;;;;;9.55;100.00;97004.00;5043998;28;20257;-59
2022/05/01 00:17:03;;;;;;;18.80;16.80;;;;;;;9.53;100.00;97005.94;5045455;28;20200;-58
2022/05/01 00:19:30;;;;;;;18.53;16.73;;;;;;;9.52;100.00;97014.00;5044489;28;20212;-58
2022/05/01 00:21:58;;;;;;;19.40;17.60;;;;;;;9.52;100.00;97004.28;5044469;28;20563;-57
2022/05/01 00:24:25;;;;;;;20.40;18.40;;;;;;;9.50;100.00;97003.53;5045148;28;20207;-57
2022/05/01 00:26:53;;;;;;;19.77;17.87;;;;;;;9.51;100.00;97005.22;5044161;28;20195;-58
2022/05/01 00:29:19;;;;;;;19.93;18.13;;;;;;;9.47;100.00;97006.44;5043310;28;20272;-56
2022/05/01 00:31:46;;;;;;;18.97;17.17;;;;;;;9.49;100.00;97004.53;5048393;28;20224;-56
2022/05/01 00:36:57;;;;;;;20.13;18.20;;;;;;;9.39;100.00;97001.78;5043650;28;20252;-56
2022/05/01 00:39:24;;;;;;;19.53;17.53;;;;;;;9.34;100.00;97006.63;5044103;28;20207;-56
2022/05/01 00:41:50;;;;;;;21.47;18.37;;;;;;;9.32;100.00;97002.44;5044232;28;20235;-57
2022/05/01 00:44:21;;;;;;;19.57;17.77;;;;;;;9.25;100.00;97004.75;5043790;28;21433;-57
2022/05/01 00:46:49;;;;;;;20.40;18.37;;;;;;;9.27;100.00;96999.34;5044035;28;20659;-57
2022/05/01 00:49:18;;;;;;;19.97;18.07;;;;;;;9.29;100.00;97008.81;5043774;28;20245;-56
2022/05/01 00:51:47;;;;;;;20.47;18.47;;;;;;;9.27;100.00;97005.47;5043747;28;20195;-56
2022/05/01 00:54:16;;;;;;;20.90;18.90;;;;;;;9.30;100.00;97009.66;5043735;28;20498;-56
2022/05/01 00:56:45;;;;;;;22.10;19.47;;;;;;;9.26;100.00;97008.22;5043640;28;20635;-56
2022/05/01 00:59:13;;;;;;;21.73;19.63;;;;;;;9.21;100.00;97007.78;5044041;28;20203;-55
2022/05/01 01:01:43;;;;;;;21.13;18.77;;;;;;;9.28;100.00;97006.31;5043593;28;20219;-56
2022/05/01 01:04:10;;;;;;;21.37;19.17;;;;;;;9.23;100.00;97011.13;5043320;28;20218;-56
2022/05/01 01:06:37;;;;;;;20.43;18.33;;;;;;;9.24;100.00;97003.09;5043847;28;20235;-56
2022/05/01 01:09:03;;;;;;;20.60;18.53;;;;;;;9.29;100.00;97005.31;5042924;28;20571;-59
2022/05/01 01:11:30;;;;;;;21.50;19.40;;;;;;;9.23;100.00;97003.19;5044131;28;20250;-57
2022/05/01 01:13:57;;;;;;;21.87;19.70;;;;;;;9.13;100.00;96994.38;5042978;28;20218;-58
2022/05/01 01:16:23;;;;;;;20.87;18.87;;;;;;;9.15;100.00;96997.69;5044344;28;20220;-57
2022/05/01 01:18:51;;;;;;;23.10;20.07;;;;;;;9.13;100.00;96997.84;5044323;28;20211;-58
2022/05/01 01:21:19;;;;;;;21.53;19.33;;;;;;;9.17;100.00;97003.72;5043226;28;20207;-58
2022/05/01 01:23:46;;;;;;;21.93;19.83;;;;;;;9.18;100.00;96994.81;5043590;28;20639;-58
2022/05/01 01:26:14;;;;;;;22.27;19.80;;;;;;;9.21;100.00;96994.59;5044518;28;20214;-57
2022/05/01 01:28:42;;;;;;;22.10;19.83;;;;;;;9.17;100.00;96999.28;5045427;28;20525;-57
2022/05/01 01:34:06;;;;;;;21.87;19.67;;;;;;;9.20;100.00;96991.09;5042900;28;20329;-55
2022/05/01 01:36:36;;;;;;;21.07;18.87;;;;;;;9.18;100.00;96986.88;5042820;28;20203;-57
2022/05/01 01:39:03;;;;;;;20.90;18.80;;;;;;;9.19;100.00;96986.78;5042831;28;20220;-57
2022/05/01 01:41:31;;;;;;;22.57;20.37;;;;;;;9.24;100.00;96989.06;5044295;28;20251;-57
2022/05/01 01:43:59;;;;;;;24.17;21.83;;;;;;;9.28;100.00;96990.47;5043215;28;20206;-56
2022/05/01 01:46:26;;;;;;;23.03;20.73;;;;;;;9.31;100.00;97000.78;5042717;28;20207;-59
2022/05/01 01:48:53;;;;;;;23.47;21.17;;;;;;;9.29;100.00;96987.69;5043501;28;20212;-58
2022/05/01 01:51:20;;;;;;;23.67;21.37;;;;;;;9.25;100.00;96990.69;5042469;28;20227;-60
2022/05/01 01:53:49;;;;;;;24.20;21.90;;;;;;;9.30;100.00;96991.16;5042650;28;20275;-59
2022/05/01 01:56:16;;;;;;;26.27;23.57;;;;;;;9.31;100.00;96985.78;5043117;28;20222;-59
2022/05/01 01:58:42;;;;;;;23.00;20.70;;;;;;;9.38;100.00;96992.22;5042822;28;20523;-60
2022/05/01 02:01:11;;;;;;;25.43;22.80;;;;;;;9.32;100.00;96987.44;5043544;28;20199;-58
2022/05/01 02:03:37;;;;;;;23.77;21.47;;;;;;;9.38;100.00;96986.09;5042343;28;20223;-58
2022/05/01 02:06:05;;;;;;;22.80;20.50;;;;;;;9.43;100.00;96990.03;5042527;28;20209;-59
2022/05/01 02:08:34;;;;;;;22.33;20.20;;;;;;;9.41;100.00;96981.41;5042002;28;20296;-60
2022/05/01 02:11:03;;;;;;;21.17;19.07;;;;;;;9.42;100.00;96982.25;5043605;28;20355;-61
2022/05/01 02:13:31;;;;;;;21.97;19.97;;;;;;;9.35;100.00;96981.09;5043104;28;20235;-59
2022/05/01 02:15:57;;;;;;;20.43;18.53;;;;;;;9.44;100.00;96980.31;5042487;28;20238;-59
2022/05/01 02:18:25;;;;;;;20.07;18.27;;;;;;;9.41;100.00;96975.28;5032377;28;20215;-58
2022/05/01 02:23:37;;;;;;;19.50;17.67;;;;;;;9.40;100.00;96965.69;5042561;28;20222;-58
2022/05/01 02:26:08;;;;;;;19.30;17.50;;;;;;;9.43;100.00;96973.34;5041928;28;20207;-57
2022/05/01 02:28:34;;;;;;;19.40;17.47;;;;;;;9.44;100.00;96975.03;5038939;28;20240;-57
2022/05/01 02:31:01;;;;;;;19.60;17.80;;;;;;;9.46;100.00;96978.38;5030749;28;20281;-57
2022/05/01 02:33:29;;;;;;;20.17;18.17;;;;;;;9.48;100.00;96981.72;5041667;28;20204;-56
2022/05/01 02:35:57;;;;;;;18.93;17.23;;;;;;;9.41;100.00;96976.13;5042433;28;20207;-56
2022/05/01 02:38:24;;;;;;;20.50;18.47;;;;;;;9.42;100.00;96974.34;5042228;28;20249;-56
2022/05/01 02:40:52;;;;;;;20.40;18.33;;;;;;;9.46;100.00;96967.81;5041703;28;20196;-55
2022/05/01 02:43:20;;;;;;;20.33;18.33;;;;;;;9.43;100.00;96973.34;5030494;28;20277;-56
2022/05/01 02:45:46;;;;;;;20.33;18.47;;;;;;;9.43;100.00;96975.97;5042120;28;20208;-56
2022/05/01 02:48:13;;;;;;;19.23;17.43;;;;;;;9.40;100.00;96970.97;5041747;28;20204;-55
2022/05/01 02:50:40;;;;;;;19.90;18.00;;;;;;;9.42;100.00;96967.22;5041739;28;20235;-57
2022/05/01 02:53:07;;;;;;;20.17;18.27;;;;;;;9.45;100.00;96967.00;5041836;28;20666;-56
2022/05/01 02:55:35;;;;;;;20.03;17.93;;;;;;;9.42;100.00;96961.13;5042020;28;20658;-56
2022/05/01 02:58:02;;;;;;;18.83;17.03;;;;;;;9.43;100.00;96962.78;5041667;28;20213;-55
2022/05/01 03:00:30;;;;;;;18.07;16.43;;;;;;;9.50;100.00;96958.66;5042146;28;20547;-54
2022/05/01 03:02:57;;;;;;;20.13;18.17;;;;;;;9.50;100.00;96953.38;5041833;28;20226;-56
2022/05/01 03:05:25;;;;;;;19.43;17.53;;;;;;;9.44;100.00;96954.75;5041627;28;20218;-55
2022/05/01 03:07:55;;;;;;;19.47;17.67;;;;;;;9.46;100.00;96949.31;5041625;28;20245;-56
2022/05/01 03:10:23;;;;;;;17.40;15.83;;;;;;;9.47;100.00;96956.28;5040651;28;20654;-57
2022/05/01 03:12:50;;;;;;;20.03;18.23;;;;;;;9.42;100.00;96953.22;5041069;28;20222;-57
2022/05/01 03:15:16;;;;;;;18.60;16.97;;;;;;;9.42;100.00;96954.03;5041000;28;20545;-56
2022/05/01 03:23:14;;;;;;;16.67;15.23;;;;;;;9.34;100.00;96960.94;5041598;28;20227;-60
2022/05/01 03:25:40;;;;;;;16.70;15.00;;;;;;;9.37;100.00;96947.47;5041118;28;20203;-58
2022/05/01 03:28:08;;;;;;;16.40;14.80;;;;;;;9.38;100.00;96957.06;5042107;28;20210;-56
2022/05/01 03:30:35;;;;;;;15.70;14.30;;;;;;;9.41;100.00;96951.53;5040986;28;20342;-56
2022/05/01 03:33:05;;;;;;;16.40;14.90;;;;;;;9.38;100.00;96954.44;5041714;28;20204;-56
2022/05/01 03:35:35;;;;;;;15.83;14.40;;;;;;;9.37;100.00;96955.38;5041502;28;20195;-55
2022/05/01 03:38:01;;;;;;;14.83;13.47;;;;;;;9.36;100.00;96957.19;5042885;28;20234;-56
2022/05/01 03:40:28;;;;;;;14.67;13.37;;;;;;;9.38;100.00;96951.78;5046499;28;20203;-57
2022/05/01 03:42:55;;;;;;;15.67;14.00;;;;;;;9.35;100.00;96949.41;5044349;28;20234;-57
2022/05/01 03:45:22;;;;;;;15.67;14.17;;;;;;;9.31;100.00;96948.84;5045177;28;20277;-57
2022/05/01 03:47:51;;;;;;;14.70;13.40;;;;;;;9.28;100.00;96942.97;5045134;28;20214;-54
2022/05/01 03:50:19;;;;;;;15.27;13.90;;;;;;;9.27;100.00;96957.13;5044583;28;20240;-54
2022/05/01 03:52:47;;;;;;;15.33;13.93;;;;;;;9.31;100.00;96956.75;5045544;28;20200;-54
2022/05/01 03:55:14;;;;;;;15.77;14.37;;;;;;;9.30;100.00;96959.50;5044839;28;20195;-54
2022/05/01 03:57:42;;;;;;;15.60;14.07;;;;;;;9.28;100.00;96958.81;5046137;28;20193;-54
2022/05/01 04:00:18;;;;;;;15.97;14.37;;;;;;;9.21;100.00;96953.16;5044914;28;20221;-54
2022/05/01 04:02:45;;;;;;;14.97;13.57;;;;;;;9.21;100.00;96957.63;5044977;28;20259;-53
2022/05/01 04:05:12;;;;;;;14.70;13.30;;;;;;;9.26;100.00;96958.06;5044709;28;20211;-54
2022/05/01 04:07:43;;;;;;;15.67;14.17;;;;;;;9.21;100.00;96947.09;5044469;28;20547;-54
2022/05/01 04:10:10;;;;;;;15.37;14.03;;;;;;;9.21;100.00;96949.72;5044603;28;20218;-54
2022/05/01 04:12:37;;;;;;;14.60;13.27;;;;;;;9.17;100.00;96958.84;5034087;28;20200;-54
2022/05/01 04:15:07;;;;;;;14.13;12.93;;;;;;;9.21;100.00;96952.38;5045165;28;20231;-53
2022/05/01 04:17:38;;;;;;;14.73;13.43;;;;;;;9.13;100.00;96958.28;5043368;28;20222;-54
2022/05/01 04:20:08;;;;;;;14.93;13.50;;;;;;;9.14;100.00;96956.47;5045035;28;20218;-54
2022/05/01 04:22:40;;;;;;;14.90;13.50;;;;;;;9.17;100.00;96956.22;5045435;28;20225;-53
2022/05/01 04:25:15;;;;;;;14.87;13.37;;;;;;;9.17;100.00;96956.22;5045398;28;20217;-54
2022/05/01 04:27:42;;;;;;;14.67;13.27;;;;;;;9.15;100.00;96958.13;5046500;28;20203;-53
2022/05/01 04:30:10;;;;;;;15.53;13.90;;;;;;;9.18;100.00;96960.50;5044841;28;20214;-54
2022/05/01 04:32:47;;;;;;;14.87;13.40;;;;;;;9.07;100.00;96960.56;5045301;28;20219;-54
2022/05/01 04:35:13;;;;;;;14.80;13.50;;;;;;;9.08;100.00;96956.94;5043629;28;20530;-54
2022/05/01 04:37:40;;;;;;;14.80;13.50;;;;;;;9.13;100.00;96960.06;5043235;28;20239;-54
2022/05/01 04:40:09;;;;;;;15.60;14.10;;;;;;;9.11;100.00;96961.97;5043904;28;20214;-54
2022/05/01 04:42:36;;;;;;;15.13;13.80;;;;;;;9.21;100.00;96962.91;5044556;28;20239;-54
2022/05/01 04:45:02;;;;;;;15.20;13.80;;;;;;;9.26;100.00;96966.00;5044073;28;20204;-54
2022/05/01 04:47:29;;;;;;;16.03;14.43;;;;;;;9.22;100.00;96964.56;5045041;28;20203;-54
2022/05/01 04:49:55;;;;;;;16.07;14.67;;;;;;;9.27;100.00;96965.03;5043446;28;20238;-54
2022/05/01 04:52:22;;;;;;;17.17;15.57;;;;;;;9.28;100.00;96964.09;5045015;28;20203;-54
2022/05/01 04:54:48;;;;;;;16.40;14.87;;;;;;;9.22;100.00;96969.84;5044765;28;20207;-54
2022/05/01 04:57:16;;;;;;;16.10;14.70;;;;;;;9.20;100.00;96966.50;5044585;28;20208;-54
2022/05/01 04:59:43;;;;;;;16.07;14.50;;;;;;;9.24;100.00;96965.31;5044632;28;20278;-53
2022/05/01 05:02:10;;;;;;;15.97;14.47;;;;;;;9.24;100.00;96970.56;5044440;28;20625;-55
2022/05/01 05:04:37;;;;;;;15.03;13.73;;;;;;;9.27;100.00;96967.69;5044926;28;20203;-54
2022/05/01 05:07:04;;;;;;;15.57;14.07;;;;;;;9.29;100.00;96966.56;5044286;28;20208;-54
2022/05/01 05:12:15;;;;;;;14.47;12.97;;;;;;;9.20;100.00;96966.50;5045942;28;20210;-54
2022/05/01 05:14:42;;;;;;;15.50;14.10;;;;;;;9.24;100.00;96967.94;5046545;28;20235;-54
2022/05/01 05:17:10;;;;;;;15.53;14.13;;;;;;;9.20;100.00;96964.72;5049066;28;20294;-54
2022/05/01 05:19:36;;;;;;;15.23;13.93;;;;;;;9.24;100.00;96967.94;5049582;28;20299;-53
2022/05/01 05:22:03;;;;;;;14.43;13.10;;;;;;;9.24;100.00;96970.56;5065239;28;20258;-53
2022/05/01 05:24:30;;;;;;;14.27;13.03;;;;;;;9.23;100.00;96966.25;5058288;28;20223;-53
2022/05/01 05:26:57;;;;;;;14.97;13.47;;;;;;;9.25;100.00;96981.00;5067210;28;20218;-54
2022/05/01 05:29:26;;;;;;;14.70;13.30;;;;;;;9.30;100.00;96978.81;5063554;28;20213;-55
2022/05/01 05:31:53;;;;;;;14.83;13.53;;;;;;;9.36;100.00;96977.47;5067634;28;20210;-54
2022/05/01 05:34:19;;;;;;;15.57;14.07;;;;;;;9.35;100.00;96981.09;5062136;28;20188;-54
2022/05/01 05:36:46;;;;;;;13.97;12.67;;;;;;;9.40;100.00;96978.88;5067208;28;20199;-55
2022/05/01 05:39:12;;;;;;;14.57;13.27;;;;;;;9.34;100.00;96982.03;5067927;28;20215;-54
2022/05/01 05:41:39;;;;;;;13.43;12.23;;;;;;;9.34;100.00;96979.41;5057578;28;20565;-54
2022/05/01 05:44:05;;;;;;;14.07;12.67;;;;;;;9.30;100.00;96984.09;5043966;28;20250;-54
2022/05/01 05:46:35;;;;;;;12.80;11.73;;;;;;;9.24;100.00;96987.25;5043424;28;20210;-54
2022/05/01 05:49:01;;;;;;;12.87;11.63;;;;;;;9.25;100.00;96988.91;5042390;28;20204;-53
2022/05/01 05:51:28;;;;;;;13.40;12.20;;;;;;;9.23;100.00;96992.63;5042123;28;20203;-54
2022/05/01 05:53:55;;;;;;;12.97;11.80;;;;;;;9.22;100.00;96996.22;5043479;28;20196;-54
2022/05/01 05:56:22;;;;;;;12.80;11.70;;;;;;;9.28;100.00;96996.56;5042611;28;20210;-54
2022/05/01 05:58:48;;;;;;;14.07;12.73;;;;;;;9.34;100.00;96997.88;5042369;28;20207;-53
2022/05/01 06:01:15;;;;;;;12.77;11.67;;;;;;;9.37;100.00;97005.53;5042745;28;20210;-54
2022/05/01 06:03:43;;;;;;;13.07;11.90;;;;;;;9.33;100.00;96999.66;5041906;28;20667;-54
2022/05/01 06:06:10;;;;;;;13.93;12.53;;;;;;;9.38;100.00;96996.66;5042376;28;20214;-54
2022/05/01 06:08:38;;;;;;;13.57;12.37;;;;;;;9.35;100.00;97003.00;5030503;28;20200;-54
2022/05/01 06:11:04;;;;;;;14.23;12.93;;;;;;;9.40;100.00;97000.00;5042883;28;20207;-54
2022/05/01 06:13:31;;;;;;;14.33;13.03;;;;;;;9.44;100.00;97006.69;5042639;28;20200;-53
2022/05/01 06:15:58;;;;;;;15.30;14.00;;;;;;;9.48;100.00;97008.97;5037860;28;20226;-54
2022/05/01 06:18:24;;;;;;;16.03;14.53;;;;;;;9.50;100.00;97000.91;5042907;28;20640;-54
2022/05/01 06:20:53;;;;;;;14.97;13.67;;;;;;;9.50;100.00;97008.81;5042127;28;20217;-54
2022/05/01 06:23:20;;;;;;;14.40;13.20;;;;;;;9.52;100.00;97001.63;5042139;28;20280;-54
2022/05/01 06:25:47;;;;;;;16.00;14.50;;;;;;;9.52;100.00;97001.63;5041604;28;20203;-54
2022/05/01 06:28:14;;;;;;;14.90;13.60;;;;;;;9.61;100.00;97007.94;5041750;28;20238;-54
2022/05/01 06:30:41;;;;;;;16.57;15.07;;;;;;;9.59;100.00;97001.94;5042346;28;20191;-54
2022/05/01 06:33:09;;;;;;;15.27;13.77;;;;;;;9.64;100.00;97007.66;5041772;28;20679;-54
2022/05/01 06:35:36;;;;;;;14.47;13.27;;;;;;;9.67;98.86;97007.44;5041281;28;20318;-54
2022/05/01 06:38:07;;;;;;;13.93;12.63;;;;;;;9.72;99.92;97006.06;5041521;28;20212;-54
2022/05/01 06:40:37;;;;;;;14.77;13.43;;;;;;;9.68;100.00;97004.66;5042154;28;20214;-54
2022/05/01 06:43:04;;;;;;;14.83;13.43;;;;;;;9.69;100.00;97016.06;5041889;28;20227;-54
2022/05/01 06:45:30;;;;;;;13.97;12.77;;;;;;;9.74;100.00;97017.34;5042560;28;20215;-53
2022/05/01 06:47:57;;;;;;;13.47;12.27;;;;;;;9.73;100.00;97013.03;5042485;28;20207;-53
2022/05/01 06:50:25;;;;;;;14.77;13.50;;;;;;;9.75;100.00;97016.38;5043385;28;20254;-54
2022/05/01 06:52:52;;;;;;;14.10;12.80;;;;;;;9.82;100.00;97017.53;5043955;28;20214;-53
2022/05/01 06:55:23;;;;;;;14.30;13.00;;;;;;;9.85;99.85;97021.72;5041782;28;20254;-54
2022/05/01 06:57:49;;;;;;;14.80;13.43;;;;;;;9.84;99.09;97015.63;5041116;28;20532;-54
2022/05/01 07:00:17;;;;;;;13.67;12.53;;;;;;;9.88;100.00;97019.66;5041480;28;20218;-55
2022/05/01 07:02:47;;;;;;;13.60;12.40;;;;;;;9.92;100.00;97014.94;5041696;28;20212;-54
2022/05/01 07:05:13;;;;;;;15.00;13.50;;;;;;;9.89;99.45;97020.50;5041828;28;20242;-52
2022/05/01 07:07:40;;;;;;;13.80;12.53;;;;;;;9.96;99.42;97024.28;5041324;28;20202;-54
2022/05/01 07:10:08;;;;;;;14.13;12.93;;;;;;;9.86;100.00;97012.84;5042166;28;20254;-54
2022/05/01 07:12:36;;;;;;;14.60;13.30;;;;;;;9.88;99.48;97018.84;5043525;28;20199;-54
2022/05/01 07:15:03;;;;;;;13.37;12.23;;;;;;;10.01;98.25;97016.81;5042825;28;20204;-54
2022/05/01 07:17:29;;;;;;;14.33;12.83;;;;;;;10.02;97.94;97022.94;5041898;28;20585;-52
2022/05/01 07:19:56;;;;;;;14.40;13.10;;;;;;;10.04;98.42;97013.91;5041554;28;20207;-54
2022/05/01 07:22:22;;;;;;;13.23;12.03;;;;;;;10.09;99.02;97018.81;5041052;28;20662;-54
2022/05/01 07:24:49;;;;;;;13.37;12.27;;;;;;;10.20;97.44;97016.94;5040843;28;20219;-54
2022/05/01 07:27:15;;;;;;;13.70;12.40;;;;;;;10.21;96.74;97018.63;5042196;28;20200;-54
2022/05/01 07:29:43;;;;;;;14.07;12.87;;;;;;;10.19;98.45;97012.66;5040921;28;20777;-53
2022/05/01 07:32:11;;;;;;;13.97;12.67;;;;;;;10.33;97.63;97009.66;5041384;28;20208;-54
2022/05/01 07:34:38;;;;;;;13.73;12.47;;;;;;;10.31;98.83;97014.22;5040904;28;20655;-54
2022/05/01 07:37:05;;;;;;;14.37;13.07;;;;;;;10.43;98.98;97012.31;5040507;28;20203;-54
2022/05/01 07:39:32;;;;;;;13.67;12.50;;;;;;;10.44;96.71;97011.38;5040387;28;20568;-52
2022/05/01 07:41:59;;;;;;;13.23;12.13;;;;;;;10.52;97.07;97006.25;5039706;28;20211;-54
2022/05/01 07:44:26;;;;;;;13.67;12.37;;;;;;;10.57;97.28;97004.03;5040802;28;20666;-54
2022/05/01 07:46:53;;;;;;;13.37;12.27;;;;;;;10.62;96.17;97001.00;5041700;28;20203;-54
2022/05/01 07:49:20;;;;;;;13.30;12.10;;;;;;;10.64;95.54;97002.53;5040436;28;20242;-54
2022/05/01 07:51:47;;;;;;;13.17;12.17;;;;;;;10.71;96.22;97001.00;5041680;28;20207;-54
2022/05/01 07:54:13;;;;;;;13.40;12.30;;;;;;;10.75;94.44;97001.56;5041384;28;20203;-53
2022/05/01 07:56:40;;;;;;;13.37;12.13;;;;;;;10.88;94.70;96996.88;5041160;28;20207;-54
2022/05/01 07:59:08;;;;;;;14.17;12.90;;;;;;;10.92;92.91;96993.81;5041004;28;20203;-53
2022/05/01 08:01:35;;;;;;;12.23;11.23;;;;;;;11.12;93.79;96996.50;5041703;28;20644;-53
2022/05/01 08:06:48;;;;;;;12.80;11.70;;;;;;;11.25;92.34;96997.06;5040434;28;20209;-54
2022/05/01 08:09:14;;;;;;;13.10;11.87;;;;;;;11.32;90.96;96995.53;5040118;28;20546;-53
2022/05/01 08:11:41;;;;;;;12.77;11.60;;;;;;;11.47;91.18;96997.66;5040755;28;20215;-52
2022/05/01 08:14:09;;;;;;;12.93;11.90;;;;;;;11.68;91.89;96997.47;5040712;28;20206;-54
2022/05/01 08:16:35;;;;;;;12.30;11.07;;;;;;;11.96;89.91;96999.28;5040799;28;20210;-54
2022/05/01 08:21:59;;;;;;;9.70;8.90;;;;;;;13.53;81.87;96998.22;4944792;29;20218;-51
2022/05/01 08:24:25;;;;;;;9.60;8.83;;;;;;;13.35;74.81;96994.72;5021147;28;21331;-53
2022/05/01 08:26:52;;;;;;;8.67;7.90;;;;;;;13.86;74.13;96992.16;5045219;28;20566;-53
2022/05/01 08:29:19;;;;;;;8.53;7.73;;;;;;;13.53;72.03;96987.59;5043955;28;20214;-52
2022/05/01 08:31:45;;;;;;;8.40;7.67;;;;;;;13.84;72.96;96978.22;5044164;28;20205;-53
2022/05/01 08:34:13;;;;;;;8.10;7.40;;;;;;;14.14;70.98;96979.56;5043764;28;20549;-52
2022/05/01 08:36:40;;;;;;;7.60;7.00;;;;;;;14.09;70.40;96986.34;5043885;28;20547;-54
2022/05/01 08:39:07;;;;;;;7.43;6.93;;;;;;;14.52;70.22;96982.81;5044015;28;20750;-52
2022/05/01 08:41:34;;;;;;;8.07;7.43;;;;;;;14.25;69.52;96986.44;5044002;28;20207;-53
2022/05/01 08:44:01;;;;;;;8.20;7.40;;;;;;;14.45;70.66;96987.94;5044489;28;20474;-52
2022/05/01 08:46:41;;;;;;;6.67;6.17;;;;;;;15.01;69.11;96990.00;5044488;28;20569;-53
2022/05/01 08:49:08;;;;;;;7.00;6.50;;;;;;;15.41;69.69;96979.41;5045017;28;20230;-54
2022/05/01 08:51:37;;;;;;;7.70;7.00;;;;;;;15.34;64.51;96975.72;5044349;28;20261;-54
2022/05/01 08:54:04;;;;;;;7.00;6.50;;;;;;;15.25;67.58;96975.88;5044086;28;20195;-53
2022/05/01 08:56:31;;;;;;;7.57;6.97;;;;;;;15.12;67.94;96980.88;5043894;28;20207;-53
2022/05/01 08:58:58;;;;;;;7.20;6.55;;;;;;;16.00;65.04;96979.28;5043809;28;20199;-54
2022/05/01 09:01:25;;;;;;;7.70;7.00;;;;;;;16.08;59.47;96979.28;5046773;28;20207;-53
2022/05/01 09:03:52;;;;;;;7.80;7.10;;;;;;;15.66;62.22;96974.94;5047539;28;20222;-53
2022/05/01 09:06:18;;;;;;;7.80;7.10;;;;;;;15.77;64.00;96977.28;5044803;28;20553;-54
2022/05/01 09:08:47;;;;;;;7.90;7.10;;;;;;;16.03;63.73;96970.94;5043332;28;20582;-53
2022/05/01 09:13:57;;;;;;;8.73;7.93;;;;;;;16.52;61.28;96977.84;5043184;28;20210;-53
2022/05/01 09:16:24;;;;;;;7.82;7.28;;;;;;;16.51;60.49;96970.00;5043633;28;20210;-54
2022/05/01 09:18:51;;;;;;;8.60;7.95;;;;;;;16.48;61.54;96973.84;5043671;28;20235;-54
2022/05/01 09:21:17;;;;;;;8.38;7.57;;;;;;;16.24;58.54;96968.56;5043379;28;20207;-53
2022/05/01 09:23:48;;;;;;;10.23;9.23;;;;;;;17.16;58.74;96975.91;5044239;28;20215;-54
2022/05/01 09:26:16;;;;;;;7.95;7.35;;;;;;;17.36;56.74;96969.09;5043387;28;20222;-53
2022/05/01 09:28:49;;;;;;;8.15;7.45;;;;;;;18.17;55.63;96976.53;5034001;28;20202;-54
2022/05/01 09:31:16;;;;;;;8.07;7.47;;;;;;;18.64;51.31;96966.31;5046026;28;20210;-54
2022/05/01 09:33:45;;;;;;;8.55;7.80;;;;;;;18.46;51.45;96970.38;5043929;28;20215;-54
2022/05/01 09:36:34;;;;;;;8.23;7.50;;;;;;;18.36;53.49;96965.25;5042723;28;20196;-54
2022/05/01 09:39:05;;;;;;;8.07;7.32;;;;;;;18.27;58.03;96967.22;5043943;28;20207;-53
2022/05/01 09:41:32;;;;;;;7.72;7.13;;;;;;;18.80;55.20;96965.31;5044378;28;20214;-54
2022/05/01 09:44:00;;;;;;;7.97;7.22;;;;;;;18.47;51.08;96966.66;5042771;28;20235;-53
2022/05/01 09:46:28;;;;;;;8.20;7.45;;;;;;;17.13;56.52;96958.41;5042997;28;20257;-53
2022/05/01 09:49:00;;;;;;;8.10;7.40;;;;;;;17.61;55.85;96961.78;5042549;28;20287;-53
2022/05/01 09:51:27;;;;;;;7.43;6.72;;;;;;;17.72;54.80;96962.19;5043186;28;20204;-54
2022/05/01 09:53:53;;;;;;;7.63;7.05;;;;;;;18.00;55.53;96953.56;5042392;28;20207;-54
2022/05/01 09:56:21;;;;;;;7.70;7.10;;;;;;;17.86;53.56;96953.38;5042193;28;20635;-53
2022/05/01 09:58:57;;;;;;;7.30;6.78;;;;;;;18.15;54.67;96954.44;5042477;28;20219;-54
2022/05/01 10:01:24;;;;;;;8.15;7.45;;;;;;;18.61;52.76;96953.31;5042329;28;20206;-53
2022/05/01 10:03:52;;;;;;;9.13;6.93;;;;;;;19.08;51.31;96952.88;5042961;28;20208;-53
2022/05/01 10:06:20;;;;;;;8.60;7.80;;;;;;;19.11;52.85;96948.97;5042041;28;20559;-54
2022/05/01 10:08:47;;;;;;;7.22;6.65;;;;;;;19.59;55.14;96947.47;5042632;28;20207;-55
2022/05/01 10:11:16;;;;;;;8.10;7.50;;;;;;;19.64;53.68;96945.88;5042209;28;20195;-54
2022/05/01 10:13:45;;;;;;;8.27;6.90;;;;;;;19.78;51.61;96942.28;5042783;28;20214;-53
2022/05/01 10:16:15;;;;;;;7.97;7.28;;;;;;;20.06;51.91;96945.00;5041985;28;20206;-51
2022/05/01 10:18:43;;;;;;;7.63;7.03;;;;;;;19.79;51.81;96949.31;5042433;28;20195;-53
2022/05/01 10:21:09;;;;;;;7.97;7.22;;;;;;;18.94;48.96;96945.69;5042658;28;20203;-53
2022/05/01 10:23:36;;;;;;;7.97;7.28;;;;;;;19.72;50.55;96942.22;5031780;28;20219;-52
2022/05/01 10:26:10;;;;;;;7.80;7.00;;;;;;;19.18;50.84;96934.63;5041965;28;20215;-52
2022/05/01 10:28:58;;;;;;;7.43;6.82;;;;;;;19.55;53.25;96932.78;5041580;28;20661;-51
2022/05/01 10:34:49;;;;;;;6.82;6.20;;;;;;;17.95;51.57;96929.22;5042473;28;20635;-51
2022/05/01 10:37:26;;;;;;;6.55;6.05;;;;;;;18.45;52.39;96924.00;5041635;28;20195;-51
2022/05/01 10:39:53;;;;;;;6.25;5.75;;;;;;;19.42;53.01;96922.75;5043004;28;20204;-52
2022/05/01 10:42:34;;;;;;;7.25;6.60;;;;;;;19.02;49.90;96923.31;5042347;28;20208;-52
2022/05/01 10:45:02;;;;;;;7.07;6.45;;;;;;;18.20;52.60;96918.09;5051374;28;20251;-51
2022/05/01 10:47:39;;;;;;;7.10;6.50;;;;;;;17.80;51.68;96921.16;5047742;28;20208;-53
2022/05/01 10:50:07;;;;;;;7.72;6.10;;;;;;;18.36;54.09;96915.22;5041259;28;20242;-52
2022/05/01 10:52:34;;;;;;;6.82;6.28;;;;;;;18.89;53.59;96910.56;5041424;28;20206;-54
2022/05/01 10:55:04;;;;;;;7.80;7.13;;;;;;;18.85;51.09;96896.72;5040999;28;20207;-53
2022/05/01 10:57:31;;;;;;;7.50;6.80;;;;;;;18.72;51.95;96901.94;5041899;28;20302;-53
2022/05/01 11:00:19;;;;;;;7.03;6.53;;;;;;;18.79;51.37;96892.13;5041419;28;20196;-54
2022/05/01 11:02:48;;;;;;;6.63;6.13;;;;;;;18.17;50.90;96894.38;5034722;28;20208;-54
2022/05/01 11:05:49;;;;;;;7.38;6.78;;;;;;;17.57;51.22;96896.31;5042064;28;20235;-53
2022/05/01 11:08:19;;;;;;;7.10;6.40;;;;;;;18.25;52.90;96893.44;5041454;28;20542;-54
2022/05/01 11:10:47;;;;;;;7.82;7.22;;;;;;;18.77;51.81;96886.13;5041345;28;20196;-54
2022/05/01 11:13:16;;;;;;;7.47;6.78;;;;;;;18.60;49.61;96892.69;5040811;28;20624;-52
2022/05/01 11:15:49;;;;;;;7.32;6.72;;;;;;;17.78;49.07;96891.91;5041579;28;20777;-53
2022/05/01 11:18:16;;;;;;;6.55;5.95;;;;;;;18.13;51.20;96884.22;5042220;28;20274;-53
2022/05/01 11:20:43;;;;;;;5.93;5.53;;;;;;;17.80;50.68;96879.19;5041548;28;20207;-52
2022/05/01 11:23:31;;;;;;;8.25;6.05;;;;;;;18.15;50.28;96877.66;5041729;28;20242;-53
2022/05/01 11:26:16;;;;;;;7.47;6.90;;;;;;;18.84;51.11;96870.97;5042450;28;20262;-52
2022/05/01 11:28:47;;;;;;;7.00;6.30;;;;;;;18.99;48.44;96870.09;5042086;28;20204;-53
2022/05/01 11:31:46;;;;;;;7.30;6.32;;;;;;;18.81;47.55;96870.50;5044684;28;20216;-53
2022/05/01 11:34:52;;;;;;;6.63;6.03;;;;;;;19.63;47.50;96866.38;5041328;28;20222;-52
2022/05/01 11:37:20;;;;;;;6.63;5.97;;;;;;;19.45;47.24;96870.59;5041644;28;20295;-53
2022/05/01 11:40:20;;;;;;;7.38;5.32;;;;;;;19.65;45.77;96861.69;5040099;28;20203;-55
2022/05/01 11:42:46;;;;;;;5.00;4.57;;;;;;;20.21;46.34;96859.78;5041460;28;20214;-53
2022/05/01 11:45:13;;;;;;;5.68;5.22;;;;;;;20.06;43.76;96860.91;5041356;28;20223;-52
2022/05/01 11:47:43;;;;;;;6.10;5.60;;;;;;;19.76;46.12;96847.72;5041504;28;20639;-53
2022/05/01 11:50:21;;;;;;;5.82;5.32;;;;;;;19.74;47.19;96849.75;5040617;28;20323;-52
2022/05/01 11:52:54;;;;;;;5.55;5.13;;;;;;;20.23;47.52;96848.84;5041926;28;20217;-50
2022/05/01 12:02:24;;;;;;;6.88;5.45;;;;;;;20.07;44.99;96847.31;5041061;28;20530;-53
2022/05/01 12:03:37;;;;;;;5.38;4.88;;;;;;;19.58;45.54;96842.00;5044104;28;20663;-55